Time;durP1;ratioP1;P1;durP2;ratioP2;P2;SDS_P1;SDS_P2;PMS_P1;PMS_P2;Temp;Humidity;BMP_temperature;BMP_pressure;BME280_temperature;BME280_humidity;BME280_pressure;Samples;Min_cycle;Max_cycle;Signal;HPM_P1;HPM_P2
2023/06/24 00:02:07;;;;;;;13.85;9.23;;;18.60;99.90;;;;;;4995433;28;20036;-95
2023/06/24 00:04:33;;;;;;;10.80;8.15;;;18.60;99.90;;;;;;4963085;28;20046;-96
2023/06/24 00:07:00;;;;;;;9.25;7.25;;;18.50;99.90;;;;;;4959762;28;20038;-94
2023/06/24 00:09:29;;;;;;;8.70;6.55;;;18.40;99.90;;;;;;4995713;28;20042;-96
2023/06/24 00:11:56;;;;;;;10.30;7.72;;;18.40;99.90;;;;;;4993109;28;20035;-96
2023/06/24 00:14:31;;;;;;;13.32;8.93;;;18.40;99.90;;;;;;4975678;28;20108;-95
2023/06/24 00:16:57;;;;;;;9.85;6.75;;;18.40;99.90;;;;;;4989341;28;20043;-95
2023/06/24 00:19:27;;;;;;;10.50;7.10;;;18.30;99.90;;;;;;4978770;28;20046;-95
2023/06/24 00:21:54;;;;;;;12.00;8.27;;;18.30;99.90;;;;;;4969300;28;20401;-95
2023/06/24 00:24:25;;;;;;;10.65;7.72;;;18.30;99.90;;;;;;4995344;28;20045;-94
2023/06/24 00:26:55;;;;;;;12.18;7.93;;;18.20;99.90;;;;;;4981568;28;20049;-96
2023/06/24 00:29:21;;;;;;;11.80;8.27;;;18.20;99.90;;;;;;4991558;28;20062;-96
2023/06/24 00:31:47;;;;;;;11.52;8.38;;;18.20;99.90;;;;;;4980088;28;20113;-96
2023/06/24 00:34:13;;;;;;;11.40;7.40;;;18.20;99.90;;;;;;4974202;28;20050;-95
2023/06/24 00:36:40;;;;;;;11.90;8.98;;;18.20;99.90;;;;;;4993933;28;20050;-96
2023/06/24 00:39:06;;;;;;;10.77;8.40;;;18.20;99.90;;;;;;4957366;28;20125;-94
2023/06/24 00:41:35;;;;;;;9.77;7.25;;;18.10;99.90;;;;;;4978910;28;20042;-95
2023/06/24 00:44:01;;;;;;;12.35;8.80;;;17.90;99.90;;;;;;4971008;28;20061;-95
2023/06/24 00:46:28;;;;;;;11.95;8.88;;;17.80;99.90;;;;;;4990357;28;20049;-96
2023/06/24 00:48:58;;;;;;;8.98;6.32;;;17.70;99.90;;;;;;4993296;28;20089;-95
2023/06/24 00:51:30;;;;;;;9.27;7.00;;;17.60;99.90;;;;;;4997330;28;20050;-95
2023/06/24 00:54:00;;;;;;;9.23;7.22;;;17.60;99.90;;;;;;4961597;28;20160;-96
2023/06/24 00:56:30;;;;;;;12.60;8.82;;;17.70;99.90;;;;;;4964052;28;20042;-95
2023/06/24 00:58:59;;;;;;;11.55;8.43;;;17.70;99.90;;;;;;4992707;28;20101;-95
2023/06/24 01:01:25;;;;;;;13.35;8.73;;;17.60;99.90;;;;;;4991377;28;20498;-95
2023/06/24 01:03:51;;;;;;;11.77;8.50;;;17.60;99.90;;;;;;4977745;28;20409;-96
2023/06/24 01:06:18;;;;;;;11.30;8.75;;;17.60;99.90;;;;;;4972562;28;20079;-95
2023/06/24 01:08:56;;;;;;;12.95;9.35;;;17.50;99.90;;;;;;4992650;28;20050;-96
2023/06/24 01:11:23;;;;;;;15.73;11.05;;;17.50;99.90;;;;;;4976385;28;20077;-95
2023/06/24 01:13:50;;;;;;;10.35;7.57;;;17.50;99.90;;;;;;4979387;28;20109;-95
2023/06/24 01:16:30;;;;;;;11.35;7.90;;;17.50;99.90;;;;;;4961781;28;20047;-96
2023/06/24 01:19:29;;;;;;;13.68;8.27;;;17.40;99.90;;;;;;4973620;28;20030;-96
2023/06/24 01:22:03;;;;;;;11.07;7.85;;;17.40;99.90;;;;;;4991894;28;20056;-95
2023/06/24 01:24:37;;;;;;;;;;;17.40;99.90;;;;;;4972735;28;20039;-95
2023/06/24 01:27:25;;;;;;;11.07;7.68;;;17.40;99.90;;;;;;5000403;28;19957;-96
2023/06/24 01:30:13;;;;;;;10.45;7.35;;;17.50;99.90;;;;;;4964155;28;20069;-96
2023/06/24 01:32:48;;;;;;;9.93;7.07;;;17.40;99.90;;;;;;4971732;28;20050;-96
2023/06/24 01:35:23;;;;;;;10.98;8.73;;;17.50;99.90;;;;;;4980881;28;20038;-96
2023/06/24 01:37:51;;;;;;;12.93;8.18;;;17.40;99.90;;;;;;4968953;28;20046;-96
2023/06/24 01:40:30;;;;;;;13.10;9.43;;;17.50;99.90;;;;;;4977768;28;20054;-96
2023/06/24 01:43:03;;;;;;;12.15;8.43;;;17.40;99.90;;;;;;4992958;28;20039;-96
2023/06/24 01:45:41;;;;;;;14.00;9.75;;;17.40;99.90;;;;;;4990766;28;20049;-96
2023/06/24 01:48:16;;;;;;;11.02;8.32;;;17.30;99.90;;;;;;4980384;28;20102;-96
2023/06/24 01:50:58;;;;;;;10.40;8.50;;;17.30;99.90;;;;;;4989778;28;20049;-96
2023/06/24 01:53:26;;;;;;;13.82;10.38;;;17.30;99.90;;;;;;4966936;28;20054;-96
2023/06/24 01:55:59;;;;;;;11.00;8.77;;;17.20;99.90;;;;;;4974852;28;20054;-96
2023/06/24 01:58:25;;;;;;;13.85;10.27;;;17.20;99.90;;;;;;4979162;28;20061;-96
2023/06/24 02:00:52;;;;;;;13.82;9.55;;;17.10;99.90;;;;;;4974357;28;20042;-96
2023/06/24 02:03:20;;;;;;;11.75;8.50;;;17.10;99.90;;;;;;4993705;28;20050;-96
2023/06/24 02:05:47;;;;;;;12.18;8.63;;;17.00;99.90;;;;;;4980104;28;20374;-96
2023/06/24 02:08:14;;;;;;;10.98;7.53;;;17.00;99.90;;;;;;4966047;28;20054;-96
2023/06/24 02:10:41;;;;;;;12.13;9.02;;;17.00;99.90;;;;;;4970902;28;20046;-96
2023/06/24 02:13:10;;;;;;;14.20;9.85;;;17.00;99.90;;;;;;4965484;28;20049;-96
2023/06/24 02:15:40;;;;;;;9.75;7.63;;;17.00;99.90;;;;;;4971586;28;20058;-96
2023/06/24 02:18:09;;;;;;;11.05;9.00;;;17.00;99.90;;;;;;5005726;28;20040;-96
2023/06/24 02:20:43;;;;;;;13.68;9.18;;;17.00;99.90;;;;;;4990965;28;20118;-96
2023/06/24 02:23:10;;;;;;;;;;;17.00;99.90;;;;;;4955883;28;20046;-96
2023/06/24 02:25:41;;;;;;;11.82;9.00;;;17.40;99.90;;;;;;5007158;28;19925;-96
2023/06/24 02:28:12;;;;;;;13.45;9.75;;;16.90;99.90;;;;;;4981005;28;20070;-96
2023/06/24 02:30:42;;;;;;;10.68;8.32;;;16.00;99.90;;;;;;4978917;28;20046;-96
2023/06/24 02:33:21;;;;;;;14.35;10.43;;;17.00;99.90;;;;;;4988424;28;20074;-96
2023/06/24 02:35:58;;;;;;;12.75;9.80;;;16.90;99.90;;;;;;4986075;28;20085;-96
2023/06/24 02:39:03;;;;;;;14.30;9.00;;;16.80;99.90;;;;;;4975863;28;20069;-96
2023/06/24 02:41:33;;;;;;;14.25;10.40;;;16.80;99.90;;;;;;4983117;28;20046;-96
2023/06/24 02:44:08;;;;;;;10.50;8.27;;;16.80;99.90;;;;;;4971370;28;20106;-96
2023/06/24 02:46:36;;;;;;;15.45;9.85;;;16.80;99.90;;;;;;5002476;28;20066;-96
2023/06/24 02:49:09;;;;;;;14.30;10.60;;;16.80;99.90;;;;;;4996043;28;20141;-96
2023/06/24 02:51:38;;;;;;;15.85;10.95;;;16.80;99.90;;;;;;4980635;28;20058;-96
2023/06/24 02:54:05;;;;;;;18.40;12.95;;;16.80;99.90;;;;;;4993419;28;20042;-96
2023/06/24 02:56:41;;;;;;;23.20;16.45;;;16.80;99.90;;;;;;4974389;28;20038;-96
2023/06/24 02:59:10;;;;;;;22.20;14.88;;;16.70;99.90;;;;;;4997802;28;20417;-96
2023/06/24 03:01:39;;;;;;;41.17;29.17;;;16.80;99.90;;;;;;4986036;28;20050;-96
2023/06/24 03:04:06;;;;;;;31.48;22.00;;;16.70;99.90;;;;;;4983723;28;20038;-96
2023/06/24 03:06:33;;;;;;;29.92;21.33;;;16.70;99.90;;;;;;4979359;28;20039;-96
2023/06/24 03:08:59;;;;;;;26.42;19.20;;;16.70;99.90;;;;;;4985127;28;20141;-95
2023/06/24 03:11:49;;;;;;;18.38;14.32;;;16.70;99.90;;;;;;4970237;28;20062;-96
2023/06/24 03:14:19;;;;;;;20.75;14.07;;;16.70;99.90;;;;;;4984332;28;20043;-96
2023/06/24 03:16:53;;;;;;;28.83;19.92;;;16.70;99.90;;;;;;5006912;28;20125;-96
2023/06/24 03:19:20;;;;;;;26.33;18.40;;;16.70;99.90;;;;;;4987322;28;20049;-96
2023/06/24 03:21:58;;;;;;;22.80;16.77;;;16.70;99.90;;;;;;5006723;28;20037;-96
2023/06/24 03:24:27;;;;;;;24.88;16.23;;;16.60;99.90;;;;;;4992147;28;20119;-96
2023/06/24 03:26:59;;;;;;;21.23;15.38;;;16.60;99.90;;;;;;4979719;28;20034;-96
2023/06/24 03:29:25;;;;;;;26.73;18.08;;;16.50;99.90;;;;;;4987527;28;20492;-96
2023/06/24 03:32:03;;;;;;;23.05;17.73;;;16.50;99.90;;;;;;5010899;28;20030;-96
2023/06/24 03:34:38;;;;;;;22.63;15.02;;;16.40;99.90;;;;;;4982864;28;20069;-96
2023/06/24 03:37:07;;;;;;;;;;;16.40;99.90;;;;;;5004225;28;20054;-95
2023/06/24 03:39:36;;;;;;;20.60;14.95;;;16.40;99.90;;;;;;5003166;28;19917;-96
2023/06/24 03:42:03;;;;;;;21.15;15.80;;;16.40;99.90;;;;;;4999212;28;20050;-96
2023/06/24 03:44:50;;;;;;;21.60;15.93;;;16.40;99.90;;;;;;4995364;28;20073;-96
2023/06/24 03:47:31;;;;;;;26.92;15.95;;;16.30;99.90;;;;;;4999308;28;20134;-96
2023/06/24 03:50:08;;;;;;;23.50;15.82;;;16.30;99.90;;;;;;5004932;28;20043;-96
2023/06/24 03:56:13;;;;;;;25.30;15.43;;;16.30;99.90;;;;;;4983323;28;20098;-96
2023/06/24 03:58:39;;;;;;;24.02;15.57;;;16.20;99.90;;;;;;4953486;28;20035;-96
2023/06/24 04:01:06;;;;;;;23.58;13.95;;;16.20;99.90;;;;;;4984404;28;20043;-96
2023/06/24 04:03:32;;;;;;;24.42;15.40;;;16.80;99.90;;;;;;4983803;28;20058;-95
2023/06/24 04:05:59;;;;;;;19.15;12.75;;;16.10;99.90;;;;;;4971146;28;20054;-96
2023/06/24 04:08:29;;;;;;;25.67;13.73;;;16.10;99.90;;;;;;4974460;28;20073;-96
2023/06/24 04:11:06;;;;;;;18.02;13.30;;;16.10;99.90;;;;;;4968355;28;20042;-96
2023/06/24 04:13:54;;;;;;;19.83;13.55;;;15.70;99.90;;;;;;4971441;28;20047;-96
2023/06/24 04:16:27;;;;;;;16.90;12.35;;;16.10;99.90;;;;;;4966661;28;20039;-96
2023/06/24 04:18:53;;;;;;;16.17;11.45;;;16.30;99.90;;;;;;4964812;28;20111;-96
2023/06/24 04:21:23;;;;;;;17.00;11.38;;;16.20;99.90;;;;;;4978825;28;20049;-96
2023/06/24 04:24:00;;;;;;;17.55;11.30;;;16.00;99.90;;;;;;4972087;28;20057;-96
2023/06/24 04:26:35;;;;;;;15.82;11.38;;;16.30;99.90;;;;;;4964374;28;20055;-96
2023/06/24 04:29:14;;;;;;;15.07;10.63;;;16.30;99.90;;;;;;4975218;28;20055;-96
2023/06/24 04:31:52;;;;;;;16.50;10.75;;;16.30;99.90;;;;;;4968389;28;20054;-95
2023/06/24 04:34:30;;;;;;;21.95;11.30;;;16.30;99.90;;;;;;4972263;28;20062;-96
2023/06/24 04:36:59;;;;;;;15.93;10.75;;;16.30;99.90;;;;;;4981669;28;20043;-96
2023/06/24 04:39:25;;;;;;;19.52;10.88;;;15.80;99.90;;;;;;4960387;28;20103;-96
2023/06/24 04:41:54;;;;;;;16.58;10.32;;;16.20;99.90;;;;;;4975182;28;20047;-96
2023/06/24 04:44:21;;;;;;;14.32;9.77;;;16.20;99.90;;;;;;4987775;28;20035;-96
2023/06/24 04:46:53;;;;;;;12.57;9.77;;;16.10;99.90;;;;;;4963814;28;20058;-96
2023/06/24 04:49:20;;;;;;;15.85;10.20;;;16.20;99.90;;;;;;4984589;28;20054;-96
2023/06/24 04:51:46;;;;;;;13.82;9.80;;;16.20;99.90;;;;;;4971626;28;20114;-96
2023/06/24 04:54:21;;;;;;;14.63;10.23;;;16.20;99.90;;;;;;4974891;28;20045;-96
2023/06/24 04:56:55;;;;;;;13.98;9.82;;;16.40;99.90;;;;;;4977827;28;20080;-95
2023/06/24 04:59:21;;;;;;;16.48;11.20;;;16.20;99.90;;;;;;4953431;28;20050;-96
2023/06/24 05:01:57;;;;;;;14.10;10.25;;;16.20;99.90;;;;;;4987572;28;20078;-96
2023/06/24 05:04:27;;;;;;;17.60;10.13;;;16.20;99.90;;;;;;4981807;28;20553;-96
2023/06/24 05:06:53;;;;;;;16.05;10.27;;;16.20;99.90;;;;;;4965141;28;20039;-96
2023/06/24 05:42:49;;;;;;;15.05;9.98;;;16.80;99.90;;;;;;4933478;29;20048;-94
2023/06/24 05:45:15;;;;;;;13.68;9.85;;;16.90;99.90;;;;;;4926517;29;20567;-94
2023/06/24 05:47:41;;;;;;;14.57;9.70;;;16.90;99.90;;;;;;4924117;29;20039;-92
2023/06/24 05:50:07;;;;;;;14.27;9.15;;;17.00;99.90;;;;;;4918103;29;20100;-92
2023/06/24 05:52:33;;;;;;;17.58;10.60;;;17.00;99.90;;;;;;4921829;29;20072;-90
2023/06/24 05:54:59;;;;;;;13.85;9.80;;;17.20;99.90;;;;;;4899716;29;20048;-90
2023/06/24 05:57:25;;;;;;;15.57;10.35;;;17.20;99.90;;;;;;4919373;29;20040;-90
2023/06/24 05:59:51;;;;;;;16.08;10.32;;;17.20;99.90;;;;;;4918975;29;20044;-89
2023/06/24 06:02:23;;;;;;;16.38;10.38;;;17.30;99.90;;;;;;4913195;29;20068;-91
2023/06/24 06:04:50;;;;;;;14.77;9.27;;;17.40;99.90;;;;;;4915133;29;20059;-90
2023/06/24 06:07:16;;;;;;;14.93;9.40;;;17.40;99.90;;;;;;4915515;29;20059;-90
2023/06/24 06:09:42;;;;;;;13.43;9.57;;;17.50;99.90;;;;;;4899722;29;20044;-89
2023/06/24 06:12:08;;;;;;;14.23;9.65;;;17.50;99.90;;;;;;4914822;29;20047;-90
2023/06/24 06:14:34;;;;;;;12.45;9.05;;;17.60;99.90;;;;;;4913653;29;20555;-90
2023/06/24 06:17:00;;;;;;;11.93;8.93;;;17.70;99.90;;;;;;4914733;29;20040;-90
2023/06/24 06:19:26;;;;;;;14.55;9.10;;;17.70;99.90;;;;;;4901669;29;20056;-89
2023/06/24 06:21:52;;;;;;;11.27;7.93;;;17.80;99.90;;;;;;4902448;29;20032;-87
2023/06/24 06:24:18;;;;;;;12.13;8.82;;;17.90;99.90;;;;;;4922146;29;20119;-93
2023/06/24 06:26:44;;;;;;;14.48;9.77;;;18.00;99.90;;;;;;4901010;29;20511;-92
2023/06/24 06:29:11;;;;;;;11.48;9.00;;;18.10;99.90;;;;;;4917063;29;20065;-90
2023/06/24 06:31:39;;;;;;;12.77;7.82;;;18.20;99.90;;;;;;4903593;29;20083;-92
2023/06/24 06:34:05;;;;;;;12.60;9.48;;;18.30;99.90;;;;;;4919233;29;20052;-92
2023/06/24 06:36:31;;;;;;;14.02;8.70;;;18.40;99.90;;;;;;4919304;29;20044;-92
2023/06/24 06:38:57;;;;;;;12.50;8.38;;;18.40;99.90;;;;;;4920979;29;20035;-92
2023/06/24 06:41:25;;;;;;;11.93;9.38;;;18.60;99.90;;;;;;4894054;29;20461;-93
2023/06/24 06:43:52;;;;;;;14.63;9.57;;;18.70;99.90;;;;;;4903003;29;20567;-93
2023/06/24 06:46:18;;;;;;;12.75;9.27;;;18.80;99.90;;;;;;4922713;29;20100;-93
2023/06/24 06:48:44;;;;;;;13.68;8.75;;;18.90;99.90;;;;;;4908555;29;20068;-93
2023/06/24 06:51:12;;;;;;;14.90;9.27;;;18.90;99.90;;;;;;4914037;29;20037;-96
2023/06/24 06:53:39;;;;;;;12.70;8.93;;;19.10;99.90;;;;;;4928495;28;20056;-96
2023/06/24 06:56:05;;;;;;;12.57;9.50;;;19.10;99.90;;;;;;4910107;29;20044;-94
2023/06/24 06:58:30;;;;;;;14.75;8.63;;;19.30;99.90;;;;;;4907486;29;20046;-94
2023/06/24 07:01:01;;;;;;;10.95;8.25;;;19.40;99.90;;;;;;4930377;29;20054;-93
2023/06/24 07:03:54;;;;;;;16.38;8.30;;;19.50;99.90;;;;;;4921612;29;20052;-92
2023/06/24 07:06:20;;;;;;;16.90;9.70;;;19.60;99.90;;;;;;4893558;29;20124;-92
2023/06/24 07:08:46;;;;;;;15.10;10.07;;;19.70;99.90;;;;;;4901946;29;20369;-91
2023/06/24 07:11:11;;;;;;;12.52;8.85;;;19.90;99.90;;;;;;4904775;29;20048;-90
2023/06/24 07:13:37;;;;;;;13.45;9.18;;;20.20;99.90;;;;;;4909981;29;20056;-89
2023/06/24 07:16:03;;;;;;;13.65;9.77;;;20.40;99.90;;;;;;4914763;29;20062;-88
2023/06/24 07:18:31;;;;;;;13.85;10.60;;;20.60;99.90;;;;;;4914655;29;20047;-88
2023/06/24 07:21:00;;;;;;;13.85;10.23;;;20.80;99.90;;;;;;4912364;29;20055;-87
2023/06/24 07:23:25;;;;;;;14.40;9.65;;;21.10;99.90;;;;;;4902299;29;20111;-85
2023/06/24 07:25:51;;;;;;;21.20;10.95;;;21.30;99.90;;;;;;4910890;29;20139;-87
2023/06/24 07:28:17;;;;;;;14.32;10.57;;;21.40;99.90;;;;;;4908901;29;20032;-88
2023/06/24 07:30:43;;;;;;;14.40;10.70;;;21.50;99.90;;;;;;4912649;29;20052;-86
2023/06/24 07:33:09;;;;;;;14.27;10.75;;;21.60;99.90;;;;;;4912330;29;20051;-85
2023/06/24 07:35:35;;;;;;;15.30;10.43;;;21.70;99.90;;;;;;4906279;29;20411;-86
2023/06/24 07:38:01;;;;;;;24.00;11.52;;;21.80;99.90;;;;;;4907014;29;20064;-87
2023/06/24 07:40:26;;;;;;;17.33;10.55;;;21.90;99.90;;;;;;4905711;29;20048;-88
2023/06/24 07:42:56;;;;;;;14.20;9.40;;;21.90;99.90;;;;;;4889841;29;20122;-86
2023/06/24 07:45:33;;;;;;;12.98;9.35;;;22.00;99.90;;;;;;4912302;29;20048;-88
2023/06/24 07:48:29;;;;;;;17.42;9.90;;;22.10;99.90;;;;;;4885493;29;20139;-87
2023/06/24 07:51:07;;;;;;;14.77;9.43;;;22.20;99.90;;;;;;4903882;29;20571;-86
2023/06/24 07:53:33;;;;;;;16.05;9.75;;;22.20;99.90;;;;;;4905403;29;20040;-87
2023/06/24 07:55:59;;;;;;;12.65;7.55;;;22.40;99.90;;;;;;4911078;29;20036;-88
2023/06/24 07:58:25;;;;;;;10.20;5.72;;;22.50;99.90;;;;;;4896253;29;20044;-89
2023/06/24 08:01:06;;;;;;;8.13;5.57;;;22.50;99.90;;;;;;4893456;29;20055;-91
2023/06/24 08:03:32;;;;;;;8.07;5.13;;;22.70;99.90;;;;;;4908425;29;20524;-89
2023/06/24 08:06:00;;;;;;;9.80;5.80;;;22.60;99.90;;;;;;4893358;29;20076;-88
2023/06/24 08:08:26;;;;;;;8.75;5.70;;;22.80;99.90;;;;;;4912432;29;20043;-87
2023/06/24 08:10:52;;;;;;;11.00;5.93;;;23.00;99.90;;;;;;4908346;29;20636;-88
2023/06/24 08:13:18;;;;;;;10.10;5.32;;;23.20;99.90;;;;;;4895854;29;20135;-88
2023/06/24 08:15:44;;;;;;;8.95;5.88;;;23.40;99.90;;;;;;4910884;29;20126;-91
2023/06/24 08:18:10;;;;;;;6.78;5.10;;;23.40;99.90;;;;;;4888673;29;20138;-90
2023/06/24 08:20:36;;;;;;;9.65;6.20;;;23.50;99.90;;;;;;4902491;29;20044;-89
2023/06/24 08:23:02;;;;;;;8.25;5.03;;;23.50;99.90;;;;;;4912602;29;20384;-92
2023/06/24 08:25:28;;;;;;;8.27;5.22;;;23.50;99.90;;;;;;4887133;29;20068;-81
2023/06/24 08:27:53;;;;;;;7.20;5.07;;;23.60;99.90;;;;;;4889471;29;20076;-81
2023/06/24 08:30:19;;;;;;;12.07;5.00;;;23.70;99.90;;;;;;4899528;29;20041;-87
2023/06/24 08:32:45;;;;;;;8.13;4.80;;;23.80;99.90;;;;;;4908902;29;20115;-88
2023/06/24 08:35:11;;;;;;;7.63;5.05;;;23.90;99.90;;;;;;4913862;29;20115;-92
2023/06/24 08:37:37;;;;;;;7.65;4.53;;;24.00;99.90;;;;;;4929878;29;20109;-96
2023/06/24 08:57:39;;;;;;;11.63;5.10;;;24.20;99.40;;;;;;3325836;26;20505;-96
2023/06/24 09:00:09;;;;;;;8.25;4.97;;;24.20;99.90;;;;;;4963722;28;20051;-87
2023/06/24 09:02:37;;;;;;;7.25;4.70;;;24.20;99.60;;;;;;4967946;28;20104;-87
2023/06/24 09:05:07;;;;;;;9.13;4.80;;;24.10;99.70;;;;;;4983199;28;20038;-96
2023/06/24 09:07:33;;;;;;;7.78;4.65;;;24.20;99.60;;;;;;4977036;28;20110;-96
2023/06/24 09:10:00;;;;;;;7.03;4.65;;;24.20;99.50;;;;;;4984686;28;20599;-96
2023/06/24 09:12:26;;;;;;;12.35;5.63;;;24.20;99.30;;;;;;4975396;28;20106;-96
2023/06/24 09:14:53;;;;;;;8.35;4.70;;;24.30;99.20;;;;;;4990005;28;20125;-96
2023/06/24 09:17:22;;;;;;;6.93;4.70;;;24.40;99.20;;;;;;4975777;23;20077;-96
2023/06/24 09:19:49;;;;;;;5.75;3.75;;;24.50;99.00;;;;;;4959304;28;20050;-95
2023/06/24 09:22:18;;;;;;;9.23;4.63;;;24.60;98.80;;;;;;4962476;28;20050;-85
2023/06/24 09:24:48;;;;;;;7.10;4.57;;;24.50;99.00;;;;;;4962624;28;20070;-96
2023/06/24 09:27:19;;;;;;;7.78;4.72;;;24.50;99.00;;;;;;4936904;28;20150;-96
2023/06/24 09:29:47;;;;;;;8.07;4.30;;;24.50;98.60;;;;;;4952753;28;20105;-94
2023/06/24 09:32:12;;;;;;;10.52;4.65;;;24.50;99.10;;;;;;4943193;28;20039;-91
2023/06/24 10:01:38;;;;;;;7.22;4.50;;;25.50;97.70;;;;;;4963254;28;20516;-95
2023/06/24 10:04:06;;;;;;;9.77;4.80;;;25.50;97.10;;;;;;4974586;28;20047;-91
2023/06/24 10:06:35;;;;;;;9.65;4.00;;;25.60;97.60;;;;;;4981088;28;20045;-91
2023/06/24 10:09:06;;;;;;;7.45;4.72;;;25.70;97.50;;;;;;4964444;28;20122;-89
2023/06/24 10:11:32;;;;;;;8.82;5.03;;;25.70;97.40;;;;;;4973096;28;20126;-92
2023/06/24 10:13:58;;;;;;;9.02;4.78;;;25.70;96.90;;;;;;4947979;28;20082;-91
2023/06/24 10:16:23;;;;;;;6.07;3.80;;;25.70;97.40;;;;;;4960695;28;20053;-93
2023/06/24 10:18:49;;;;;;;7.85;4.70;;;25.50;97.30;;;;;;4937094;28;20160;-93
2023/06/24 10:21:16;;;;;;;7.82;4.20;;;25.60;97.90;;;;;;4949669;28;20121;-90
2023/06/24 10:23:53;;;;;;;7.32;4.00;;;25.60;97.70;;;;;;4972373;28;20130;-94
2023/06/24 10:26:24;;;;;;;7.18;3.65;;;25.90;96.90;;;;;;4956754;28;20039;-89
2023/06/24 10:29:05;;;;;;;6.88;3.88;;;26.00;96.00;;;;;;4973405;28;20060;-92
2023/06/24 10:31:40;;;;;;;7.47;3.80;;;26.10;96.00;;;;;;4977654;28;20039;-89
2023/06/24 10:34:38;;;;;;;7.55;3.80;;;26.10;96.40;;;;;;4976553;28;20055;-94
2023/06/24 10:37:07;;;;;;;6.18;3.78;;;26.20;96.30;;;;;;4953034;28;20057;-91
2023/06/24 10:39:39;;;;;;;5.38;3.47;;;26.30;96.20;;;;;;4959195;28;20043;-91
2023/06/24 10:42:26;;;;;;;6.43;3.83;;;26.50;95.60;;;;;;4958823;28;20094;-90
2023/06/24 10:44:54;;;;;;;7.35;4.20;;;26.70;96.20;;;;;;4946828;28;20049;-90
2023/06/24 10:47:21;;;;;;;6.45;3.50;;;26.80;95.60;;;;;;4960281;28;20034;-91
2023/06/24 10:49:48;;;;;;;7.38;3.88;;;26.80;95.10;;;;;;4984086;28;20051;-92
2023/06/24 10:52:14;;;;;;;5.82;3.50;;;27.00;95.30;;;;;;4933205;28;20066;-91
2023/06/24 10:54:41;;;;;;;9.00;3.83;;;27.00;94.70;;;;;;4971192;28;20482;-91
2023/06/24 10:57:08;;;;;;;5.38;3.20;;;27.10;95.10;;;;;;4963762;28;20038;-91
2023/06/24 10:59:40;;;;;;;6.45;3.40;;;27.10;94.90;;;;;;4958774;28;20486;-87
2023/06/24 11:02:07;;;;;;;5.95;3.40;;;27.00;94.80;;;;;;4973016;28;20070;-95
2023/06/24 11:04:32;;;;;;;5.80;3.38;;;26.90;95.20;;;;;;4959047;28;20176;-93
2023/06/24 11:06:59;;;;;;;6.97;3.58;;;26.70;94.20;;;;;;4966446;28;20047;-92
2023/06/24 11:09:26;;;;;;;6.57;3.45;;;26.70;95.00;;;;;;4940089;28;20039;-93
2023/06/24 11:11:52;;;;;;;5.22;3.20;;;26.80;95.30;;;;;;4964753;28;20038;-96
2023/06/24 11:24:47;;;;;;;6.90;3.38;;;27.20;94.10;;;;;;5514204;23;20056;-96
2023/06/24 11:27:28;;;;;;;5.90;3.50;;;27.40;94.50;;;;;;4931607;29;20098;-96
2023/06/24 12:06:05;;;;;;;6.10;3.70;;;28.50;93.20;;;;;;4978484;28;20061;-96
2023/06/24 12:08:31;;;;;;;5.65;3.20;;;28.40;93.60;;;;;;4987427;28;20078;-96
2023/06/24 12:11:00;;;;;;;8.63;3.40;;;28.30;93.30;;;;;;4953946;28;20471;-96
2023/06/24 12:16:09;;;;;;;7.78;3.95;;;28.30;93.00;;;;;;5094077;22;20051;-94
2023/06/24 12:18:38;;;;;;;6.72;3.40;;;28.30;93.10;;;;;;4959518;29;20066;-96
2023/06/24 12:21:03;;;;;;;7.07;3.60;;;28.40;93.40;;;;;;4957124;28;20118;-95
2023/06/24 12:23:29;;;;;;;7.05;3.55;;;28.50;93.40;;;;;;4974791;28;20026;-94
2023/06/24 13:04:47;;;;;;;5.60;3.10;;;28.30;93.60;;;;;;3320757;26;20149;-92
2023/06/24 13:07:13;;;;;;;5.68;3.35;;;28.50;93.30;;;;;;4948457;28;20051;-92
2023/06/24 13:09:39;;;;;;;5.65;2.95;;;28.70;93.00;;;;;;4949924;28;20451;-92
2023/06/24 13:12:05;;;;;;;5.75;3.25;;;28.90;93.00;;;;;;4937797;28;20047;-92
2023/06/24 13:14:31;;;;;;;6.15;3.00;;;29.10;92.70;;;;;;4958165;28;20460;-96
2023/06/24 13:16:57;;;;;;;6.43;2.95;;;29.20;92.30;;;;;;4953855;28;20078;-86
2023/06/24 13:19:24;;;;;;;6.47;3.00;;;29.20;92.00;;;;;;4953814;28;20450;-85
2023/06/24 13:21:49;;;;;;;4.88;2.97;;;29.30;92.20;;;;;;4952778;28;20039;-85
2023/06/24 13:24:15;;;;;;;6.43;3.65;;;29.30;92.00;;;;;;4956864;28;20042;-85
2023/06/24 13:26:41;;;;;;;5.15;3.17;;;29.30;91.30;;;;;;4956385;28;20035;-94
2023/06/24 13:29:07;;;;;;;5.80;2.90;;;29.10;92.30;;;;;;4953458;28;20038;-96
2023/06/24 13:31:33;;;;;;;7.18;3.50;;;28.90;92.10;;;;;;4956334;28;20183;-84
2023/06/24 13:33:59;;;;;;;6.10;3.53;;;28.60;93.30;;;;;;4939439;28;20069;-83
2023/06/24 13:36:35;;;;;;;6.65;3.53;;;28.60;93.80;;;;;;4956257;28;20087;-84
2023/06/24 13:39:02;;;;;;;9.32;3.22;;;28.70;93.10;;;;;;4962264;28;20043;-85
2023/06/24 13:41:30;;;;;;;7.18;3.38;;;28.60;93.30;;;;;;4951569;28;20045;-84
2023/06/24 13:43:57;;;;;;;7.78;3.88;;;28.50;94.10;;;;;;4960585;28;20105;-84
2023/06/24 13:46:22;;;;;;;5.65;3.03;;;28.20;93.50;;;;;;4958101;28;20043;-85
2023/06/24 13:48:49;;;;;;;6.03;3.22;;;28.10;93.60;;;;;;4958954;28;20108;-85
2023/06/24 13:51:16;;;;;;;6.20;3.72;;;28.10;94.10;;;;;;4954308;29;20047;-93
2023/06/24 13:53:42;;;;;;;5.47;3.20;;;28.20;93.80;;;;;;4956741;28;20049;-95
2023/06/24 13:56:07;;;;;;;6.75;3.42;;;28.50;94.50;;;;;;4952238;29;20071;-93
2023/06/24 13:58:33;;;;;;;5.32;3.13;;;28.70;93.90;;;;;;4953440;28;20058;-94
2023/06/24 14:01:00;;;;;;;6.80;3.30;;;28.80;94.20;;;;;;4961933;28;20046;-87
2023/06/24 14:03:25;;;;;;;6.65;3.40;;;28.80;93.50;;;;;;4966702;28;20054;-93
2023/06/24 14:05:51;;;;;;;4.88;3.20;;;28.80;93.50;;;;;;4961296;28;20485;-92
2023/06/24 14:08:17;;;;;;;5.50;3.10;;;29.00;93.20;;;;;;4963487;28;20035;-92
2023/06/24 14:10:42;;;;;;;6.55;3.55;;;29.00;93.70;;;;;;4959292;28;20113;-93
2023/06/24 14:13:09;;;;;;;5.68;2.88;;;29.00;93.50;;;;;;4950926;28;20370;-93
2023/06/24 14:15:35;;;;;;;8.43;3.47;;;29.00;93.50;;;;;;4939246;29;20035;-92
2023/06/24 14:18:00;;;;;;;8.63;3.42;;;28.80;93.10;;;;;;4960043;28;20154;-92
2023/06/24 14:20:26;;;;;;;5.95;3.25;;;28.70;93.20;;;;;;4952824;28;20035;-92
2023/06/24 14:22:52;;;;;;;5.43;3.03;;;28.70;93.60;;;;;;4968431;28;20036;-92
2023/06/24 14:25:18;;;;;;;10.57;3.58;;;28.70;93.60;;;;;;4952604;28;20054;-94
2023/06/24 14:27:44;;;;;;;7.30;3.40;;;28.60;94.10;;;;;;4965296;28;20039;-93
2023/06/24 14:30:10;;;;;;;6.47;3.35;;;28.60;94.20;;;;;;4955902;28;20474;-94
2023/06/24 14:32:37;;;;;;;7.38;2.92;;;28.50;93.70;;;;;;4966302;28;20122;-93
2023/06/24 14:35:03;;;;;;;8.32;3.20;;;28.50;93.90;;;;;;4950152;28;20351;-94
2023/06/24 14:37:29;;;;;;;9.15;3.30;;;28.50;94.20;;;;;;4967752;28;20490;-94
2023/06/24 14:39:54;;;;;;;6.13;3.00;;;28.50;94.30;;;;;;4956923;28;20071;-93
2023/06/24 14:42:20;;;;;;;5.88;3.40;;;28.50;94.30;;;;;;4958801;28;20050;-93
2023/06/24 14:44:46;;;;;;;7.03;2.90;;;28.40;94.20;;;;;;4944960;28;20038;-93
2023/06/24 14:47:12;;;;;;;7.32;3.35;;;28.40;94.40;;;;;;4951005;28;20082;-92
2023/06/24 14:49:38;;;;;;;4.75;2.67;;;28.40;94.10;;;;;;4950408;28;20031;-93
2023/06/24 14:52:04;;;;;;;5.63;2.90;;;28.40;94.30;;;;;;4947929;28;20039;-92
2023/06/24 14:54:29;;;;;;;8.35;3.38;;;28.50;94.50;;;;;;4963482;28;20046;-93
2023/06/24 14:56:55;;;;;;;7.30;2.95;;;28.50;93.80;;;;;;4970865;28;20507;-93
2023/06/24 14:59:21;;;;;;;6.25;2.80;;;28.50;94.20;;;;;;4969864;28;20062;-93
2023/06/24 15:01:46;;;;;;;5.10;2.70;;;28.50;94.00;;;;;;4954876;28;20040;-93
2023/06/24 15:04:12;;;;;;;6.82;2.60;;;28.40;94.10;;;;;;4954332;28;20058;-92
2023/06/24 15:06:37;;;;;;;7.47;2.90;;;28.40;94.40;;;;;;4963518;28;20414;-93
2023/06/24 15:09:03;;;;;;;4.00;2.75;;;28.40;94.40;;;;;;4963042;28;20090;-93
2023/06/24 15:11:29;;;;;;;4.03;2.50;;;28.40;94.60;;;;;;4943292;28;20043;-93
2023/06/24 15:13:54;;;;;;;4.82;2.95;;;28.40;94.70;;;;;;4945162;29;20051;-93
2023/06/24 15:16:20;;;;;;;5.28;2.30;;;28.40;94.50;;;;;;4953743;28;20522;-94
2023/06/24 15:18:47;;;;;;;6.82;2.83;;;28.40;94.60;;;;;;4966997;28;20039;-93
2023/06/24 15:21:13;;;;;;;4.60;2.58;;;28.30;94.80;;;;;;4966017;28;20653;-94
2023/06/24 15:23:39;;;;;;;4.90;2.60;;;28.30;95.10;;;;;;4960612;28;20050;-93
2023/06/24 15:26:04;;;;;;;5.20;2.55;;;28.20;95.00;;;;;;4951234;28;20458;-93
2023/06/24 15:28:30;;;;;;;4.00;2.63;;;28.20;95.10;;;;;;4957968;28;20503;-93
2023/06/24 15:30:56;;;;;;;6.13;2.95;;;28.20;94.90;;;;;;4958086;28;20049;-92
2023/06/24 15:33:26;;;;;;;5.20;2.72;;;28.10;95.00;;;;;;4958954;28;20047;-94
2023/06/24 15:35:52;;;;;;;6.00;2.58;;;28.00;95.40;;;;;;4952401;28;20065;-94
2023/06/24 15:38:18;;;;;;;5.35;2.88;;;28.00;95.30;;;;;;4968971;28;20118;-93
2023/06/24 15:40:44;;;;;;;6.72;3.65;;;27.90;95.40;;;;;;4968011;28;20062;-87